createdAt,value
2018-05-11T00:00:06.032Z,19.75
2018-05-11T00:01:05.937Z,19.71
2018-05-11T00:02:05.951Z,19.67
2018-05-11T00:03:06.069Z,19.55
2018-05-11T00:04:05.990Z,19.57
2018-05-11T00:05:06.012Z,19.47
2018-05-11T00:06:06.011Z,19.46
2018-05-11T00:07:06.042Z,19.38
2018-05-11T00:08:06.175Z,19.46
2018-05-11T00:09:06.077Z,19.43
2018-05-11T00:10:06.080Z,19.47
2018-05-11T00:11:06.117Z,19.50
2018-05-11T00:12:06.100Z,19.45
2018-05-11T00:13:06.264Z,19.47
2018-05-11T00:14:06.137Z,19.43
2018-05-11T00:15:06.154Z,19.45
2018-05-11T00:16:06.189Z,19.45
2018-05-11T00:17:06.199Z,19.46
2018-05-11T00:18:06.292Z,19.35
2018-05-11T00:19:06.200Z,19.50
2018-05-11T00:20:06.224Z,19.47
2018-05-11T00:21:06.265Z,19.46
2018-05-11T00:22:06.282Z,19.45
2018-05-11T00:23:06.388Z,19.53
2018-05-11T00:24:06.276Z,19.49
2018-05-11T00:25:07.835Z,19.50
2018-05-11T00:26:06.868Z,19.49
2018-05-11T00:27:06.338Z,19.52
2018-05-11T00:28:06.511Z,19.53
2018-05-11T00:29:06.378Z,19.53
2018-05-11T00:30:06.390Z,19.56
2018-05-11T00:31:06.381Z,19.56
2018-05-11T00:32:06.410Z,19.56
2018-05-11T00:33:06.422Z,19.56
2018-05-11T00:34:06.527Z,19.55
2018-05-11T00:35:06.441Z,19.50
2018-05-11T00:36:06.453Z,19.53
2018-05-11T00:37:06.468Z,19.61
2018-05-11T00:38:06.485Z,19.65
2018-05-11T00:39:06.626Z,19.67
2018-05-11T00:40:06.529Z,19.64
2018-05-11T00:41:06.558Z,19.64
2018-05-11T00:42:06.549Z,19.75
2018-05-11T00:43:06.581Z,19.74
2018-05-11T00:44:06.721Z,19.72
2018-05-11T00:45:06.597Z,19.75
2018-05-11T00:46:06.606Z,19.83
2018-05-11T00:47:06.615Z,19.78
2018-05-11T00:48:06.645Z,19.85
2018-05-11T00:49:06.770Z,19.92
2018-05-11T00:50:06.659Z,19.89
2018-05-11T00:51:06.728Z,19.87
2018-05-11T00:52:06.716Z,19.87
2018-05-11T00:53:06.701Z,20.01
2018-05-11T00:54:06.846Z,20.04
2018-05-11T00:55:06.763Z,19.98
2018-05-11T00:56:06.778Z,20.01
2018-05-11T00:57:06.771Z,20.01
2018-05-11T00:58:06.785Z,20.01
2018-05-11T00:59:06.956Z,20.07
2018-05-11T01:00:06.833Z,20.07
2018-05-11T01:01:06.824Z,19.98
2018-05-11T01:02:06.864Z,20.08
2018-05-11T01:03:06.860Z,20.07
2018-05-11T01:04:06.975Z,20.07
2018-05-11T01:05:06.908Z,19.97
2018-05-11T01:06:06.906Z,20.02
2018-05-11T01:07:06.918Z,20.01
2018-05-11T01:08:06.931Z,19.95
2018-05-11T01:09:07.048Z,19.93
2018-05-11T01:10:06.985Z,20.01
2018-05-11T01:11:06.970Z,20.00
2018-05-11T01:12:07.011Z,20.01
2018-05-11T01:13:07.000Z,20.00
2018-05-11T01:14:07.125Z,20.00
2018-05-11T01:15:07.065Z,19.98
2018-05-11T01:16:07.082Z,20.02
2018-05-11T01:17:07.091Z,20.01
2018-05-11T01:18:07.074Z,20.02
2018-05-11T01:19:07.220Z,20.05
2018-05-11T01:20:07.130Z,20.02
2018-05-11T01:21:07.124Z,19.97
2018-05-11T01:22:07.163Z,19.98
2018-05-11T01:23:07.148Z,19.92
2018-05-11T01:24:07.313Z,19.89
2018-05-11T01:25:07.206Z,19.89
2018-05-11T01:26:07.193Z,19.87
2018-05-11T01:27:07.212Z,19.93
2018-05-11T01:28:07.222Z,19.89
2018-05-11T01:29:07.345Z,19.83
2018-05-11T01:30:07.252Z,19.80
2018-05-11T01:31:07.268Z,19.83
2018-05-11T01:32:07.283Z,19.85
2018-05-11T01:33:07.296Z,19.82
2018-05-11T01:34:07.442Z,19.74
2018-05-11T01:35:07.334Z,19.74
2018-05-11T01:36:07.343Z,19.74
2018-05-11T01:37:07.375Z,19.78
2018-05-11T01:38:07.373Z,19.72
2018-05-11T01:39:07.398Z,19.67
2018-05-11T01:40:07.527Z,19.68
2018-05-11T01:41:07.434Z,19.70
2018-05-11T01:42:07.433Z,19.65
2018-05-11T01:43:07.472Z,19.63
2018-05-11T01:44:07.460Z,19.67
2018-05-11T01:45:07.599Z,19.60
2018-05-11T01:46:07.490Z,19.63
2018-05-11T01:47:07.536Z,19.61
2018-05-11T01:48:07.547Z,19.57
2018-05-11T01:49:07.545Z,19.56
2018-05-11T01:50:07.676Z,19.67
2018-05-11T01:51:07.565Z,19.57
2018-05-11T01:52:07.586Z,19.57
2018-05-11T01:53:07.592Z,19.47
2018-05-11T01:54:07.613Z,19.46
2018-05-11T01:55:07.786Z,19.55
2018-05-11T01:56:07.664Z,19.57
2018-05-11T01:57:07.682Z,19.49
2018-05-11T01:58:07.689Z,19.55
2018-05-11T01:59:07.705Z,19.45
2018-05-11T02:00:07.821Z,19.56
2018-05-11T02:01:07.735Z,19.52
2018-05-11T02:02:07.722Z,19.49
2018-05-11T02:03:07.740Z,19.55
2018-05-11T02:04:07.757Z,19.49
2018-05-11T02:05:07.928Z,19.49
2018-05-11T02:06:07.784Z,19.45
2018-05-11T02:07:07.820Z,19.49
2018-05-11T02:08:07.842Z,19.47
2018-05-11T02:09:07.848Z,19.30
2018-05-11T02:10:08.014Z,19.37
2018-05-11T02:11:07.852Z,19.34
2018-05-11T02:12:07.892Z,19.42
2018-05-11T02:13:07.906Z,19.32
2018-05-11T02:14:07.928Z,19.32
2018-05-11T02:15:08.036Z,19.32
2018-05-11T02:16:07.929Z,19.30
2018-05-11T02:17:07.933Z,19.32
2018-05-11T02:18:07.982Z,19.23
2018-05-11T02:19:07.975Z,19.25
2018-05-11T02:20:08.170Z,19.25
2018-05-11T02:21:08.024Z,19.19
2018-05-11T02:22:08.028Z,19.19
2018-05-11T02:23:08.043Z,19.16
2018-05-11T02:24:08.043Z,19.27
2018-05-11T02:25:08.166Z,19.23
2018-05-11T02:26:08.074Z,19.19
2018-05-11T02:27:08.088Z,19.19
2018-05-11T02:28:08.102Z,19.24
2018-05-11T02:29:08.114Z,19.15
2018-05-11T02:30:08.227Z,19.17
2018-05-11T02:31:08.146Z,19.17
2018-05-11T02:32:08.175Z,19.17
2018-05-11T02:33:08.171Z,19.16
2018-05-11T02:34:08.219Z,19.15
2018-05-11T02:35:08.300Z,19.16
2018-05-11T02:36:08.210Z,19.19
2018-05-11T02:37:08.255Z,19.13
2018-05-11T02:38:08.240Z,19.09
2018-05-11T02:39:08.251Z,19.24
2018-05-11T02:40:08.374Z,19.06
2018-05-11T02:41:08.302Z,19.10
2018-05-11T02:42:08.300Z,19.05
2018-05-11T02:43:08.320Z,19.12
2018-05-11T02:44:08.328Z,19.05
2018-05-11T02:45:08.348Z,19.00
2018-05-11T02:46:08.461Z,18.99
2018-05-11T02:47:08.371Z,19.05
2018-05-11T02:48:08.396Z,18.97
2018-05-11T02:49:08.400Z,19.06
2018-05-11T02:50:08.442Z,19.00
2018-05-11T02:51:08.530Z,19.00
2018-05-11T02:52:08.444Z,19.00
2018-05-11T02:53:08.459Z,18.96
2018-05-11T02:54:08.486Z,18.94
2018-05-11T02:55:08.494Z,18.99
2018-05-11T02:56:08.622Z,18.94
2018-05-11T02:57:08.512Z,18.89
2018-05-11T02:58:08.555Z,18.87
2018-05-11T02:59:08.553Z,18.93
2018-05-11T03:00:08.570Z,18.84
2018-05-11T03:01:08.675Z,18.86
2018-05-11T03:02:08.592Z,18.89
2018-05-11T03:03:08.600Z,18.90
2018-05-11T03:04:08.632Z,18.86
2018-05-11T03:05:08.645Z,18.93
2018-05-11T03:06:08.753Z,18.81
2018-05-11T03:07:08.685Z,18.91
2018-05-11T03:08:08.703Z,18.84
2018-05-11T03:09:08.713Z,18.79
2018-05-11T03:10:08.697Z,18.84
2018-05-11T03:11:08.828Z,18.79
2018-05-11T03:12:08.751Z,18.87
2018-05-11T03:13:08.751Z,18.81
2018-05-11T03:14:08.768Z,18.74
2018-05-11T03:15:08.788Z,18.75
2018-05-11T03:16:08.911Z,18.75
2018-05-11T03:17:08.807Z,18.72
2018-05-11T03:18:08.814Z,18.71
2018-05-11T03:19:08.837Z,18.75
2018-05-11T03:20:08.868Z,18.71
2018-05-11T03:21:09.003Z,18.75
2018-05-11T03:22:08.870Z,18.61
2018-05-11T03:23:08.885Z,18.71
2018-05-11T03:24:08.911Z,18.69
2018-05-11T03:25:08.933Z,18.65
2018-05-11T03:26:09.037Z,18.61
2018-05-11T03:27:08.971Z,18.68
2018-05-11T03:28:08.978Z,18.61
2018-05-11T03:29:08.969Z,18.61
2018-05-11T03:30:08.991Z,18.63
2018-05-11T03:31:09.098Z,18.57
2018-05-11T03:32:09.009Z,18.61
2018-05-11T03:33:09.049Z,18.50
2018-05-11T03:34:09.051Z,18.63
2018-05-11T03:35:09.075Z,18.57
2018-05-11T03:36:09.244Z,18.61
2018-05-11T03:37:09.078Z,18.50
2018-05-11T03:38:09.119Z,18.53
2018-05-11T03:39:09.109Z,18.49
2018-05-11T03:40:09.118Z,18.53
2018-05-11T03:41:09.240Z,18.49
2018-05-11T03:42:09.158Z,18.45
2018-05-11T03:43:09.170Z,18.50
2018-05-11T03:44:09.187Z,18.54
2018-05-11T03:45:09.190Z,18.44
2018-05-11T03:46:09.370Z,18.56
2018-05-11T03:47:09.231Z,18.42
2018-05-11T03:48:09.231Z,18.39
2018-05-11T03:49:09.247Z,18.39
2018-05-11T03:50:09.287Z,18.36
2018-05-11T03:51:09.302Z,18.45
2018-05-11T03:52:09.390Z,18.38
2018-05-11T03:53:09.325Z,18.45
2018-05-11T03:54:09.318Z,18.39
2018-05-11T03:55:09.347Z,18.36
2018-05-11T03:56:09.359Z,18.44
2018-05-11T03:57:09.356Z,18.38
2018-05-11T03:58:09.471Z,18.38
2018-05-11T03:59:09.383Z,18.31
2018-05-11T04:00:09.396Z,18.27
2018-05-11T04:01:09.423Z,18.27
2018-05-11T04:02:09.455Z,18.29
2018-05-11T04:03:09.535Z,18.35
2018-05-11T04:04:09.470Z,18.29
2018-05-11T04:05:09.467Z,18.31
2018-05-11T04:06:09.481Z,18.29
2018-05-11T04:07:09.498Z,18.31
2018-05-11T04:08:09.614Z,18.24
2018-05-11T04:09:09.527Z,18.21
2018-05-11T04:10:09.567Z,18.27
2018-05-11T04:11:09.562Z,18.24
2018-05-11T04:12:09.576Z,18.23
2018-05-11T04:13:09.696Z,18.21
2018-05-11T04:14:09.594Z,18.24
2018-05-11T04:15:09.609Z,18.26
2018-05-11T04:16:09.632Z,18.26
2018-05-11T04:17:09.637Z,18.14
2018-05-11T04:18:09.801Z,18.24
2018-05-11T04:19:09.667Z,18.14
2018-05-11T04:20:09.676Z,18.20
2018-05-11T04:21:09.692Z,18.16
2018-05-11T04:22:09.705Z,18.13
2018-05-11T04:23:09.816Z,18.11
2018-05-11T04:24:09.730Z,18.14
2018-05-11T04:25:09.743Z,18.13
2018-05-11T04:26:09.867Z,18.10
2018-05-11T04:27:09.804Z,18.06
2018-05-11T04:28:09.898Z,18.10
2018-05-11T04:29:09.798Z,18.08
2018-05-11T04:30:09.894Z,18.11
2018-05-11T04:31:09.829Z,18.06
2018-05-11T04:32:09.851Z,18.10
2018-05-11T04:33:09.979Z,18.08
2018-05-11T04:34:09.869Z,18.08
2018-05-11T04:35:09.876Z,18.02
2018-05-11T04:36:09.898Z,17.95
2018-05-11T04:37:09.921Z,17.99
2018-05-11T04:38:10.105Z,17.99
2018-05-11T04:39:09.944Z,17.94
2018-05-11T04:40:09.954Z,17.99
2018-05-11T04:41:09.967Z,17.99
2018-05-11T04:42:09.979Z,17.98
2018-05-11T04:43:10.087Z,17.90
2018-05-11T04:44:10.008Z,17.88
2018-05-11T04:45:10.038Z,17.86
2018-05-11T04:46:10.034Z,17.94
2018-05-11T04:47:10.053Z,17.84
2018-05-11T04:48:10.170Z,17.87
2018-05-11T04:49:10.072Z,17.83
2018-05-11T04:50:10.111Z,17.84
2018-05-11T04:51:10.103Z,17.88
2018-05-11T04:52:10.122Z,17.94
2018-05-11T04:53:10.287Z,17.79
2018-05-11T04:54:10.172Z,17.87
2018-05-11T04:55:10.206Z,17.80
2018-05-11T04:56:10.166Z,17.92
2018-05-11T04:57:10.183Z,17.90
2018-05-11T04:58:10.373Z,17.88
2018-05-11T04:59:10.213Z,17.87
2018-05-11T05:00:10.223Z,17.92
2018-05-11T05:01:10.261Z,17.86
2018-05-11T05:02:10.281Z,17.87
2018-05-11T05:03:10.263Z,17.86
2018-05-11T05:04:10.386Z,17.83
2018-05-11T05:05:10.296Z,17.88
2018-05-11T05:06:10.306Z,17.88
2018-05-11T05:07:10.329Z,17.83
2018-05-11T05:08:10.338Z,17.84
2018-05-11T05:09:10.520Z,17.90
2018-05-11T05:10:10.368Z,17.87
2018-05-11T05:11:10.397Z,17.84
2018-05-11T05:12:10.388Z,17.74
2018-05-11T05:13:10.396Z,17.77
2018-05-11T05:16:29.651Z,17.71
2018-05-11T05:19:10.642Z,17.66
2018-05-11T05:20:10.519Z,17.68
2018-05-11T05:21:10.517Z,17.65
2018-05-11T05:22:10.523Z,17.50
2018-05-11T05:23:10.537Z,17.54
2018-05-11T05:24:10.673Z,17.49
2018-05-11T05:27:11.263Z,17.58
2018-05-11T05:28:12.661Z,17.54
2018-05-11T05:29:11.530Z,17.50
2018-05-11T05:30:10.628Z,17.54
2018-05-11T05:31:10.641Z,17.54
2018-05-11T05:32:10.669Z,17.46
2018-05-11T05:33:10.722Z,17.49
2018-05-11T05:34:10.793Z,17.43
2018-05-11T05:35:10.694Z,17.49
2018-05-11T05:36:10.721Z,17.45
2018-05-11T05:37:10.732Z,17.45
2018-05-11T05:38:10.734Z,17.40
2018-05-11T05:39:10.905Z,17.36
2018-05-11T05:40:10.770Z,17.40
2018-05-11T05:41:10.783Z,17.49
2018-05-11T05:42:10.791Z,17.43
2018-05-11T05:43:10.813Z,17.42
2018-05-11T05:44:37.986Z,17.38
2018-05-11T05:45:10.836Z,17.31
2018-05-11T05:46:10.849Z,17.32
2018-05-11T05:47:10.855Z,17.35
2018-05-11T05:48:10.899Z,17.36
2018-05-11T05:49:11.010Z,17.32
2018-05-11T05:50:10.901Z,17.38
2018-05-11T05:51:10.940Z,17.36
2018-05-11T05:52:12.137Z,17.24
2018-05-11T05:53:18.132Z,17.25
2018-05-11T05:54:13.366Z,17.18
2018-05-11T05:55:10.987Z,17.24
2018-05-11T05:56:10.981Z,17.28
2018-05-11T05:57:11.526Z,17.25
2018-05-11T05:59:14.780Z,17.30
2018-05-11T06:00:11.063Z,17.24
2018-05-11T06:01:11.044Z,17.21
2018-05-11T06:02:11.081Z,17.24
2018-05-11T06:03:11.069Z,17.25
2018-05-11T06:04:12.528Z,17.24
2018-05-11T06:05:11.737Z,17.27
2018-05-11T06:06:11.110Z,17.24
2018-05-11T06:07:11.149Z,17.13
2018-05-11T06:08:11.222Z,17.15
2018-05-11T06:09:11.277Z,17.18
2018-05-11T06:10:11.161Z,17.15
2018-05-11T06:11:11.191Z,17.12
2018-05-11T06:12:11.218Z,17.17
2018-05-11T06:13:11.199Z,17.24
2018-05-11T06:14:11.338Z,17.12
2018-05-11T06:15:11.254Z,17.15
2018-05-11T06:16:11.244Z,17.12
2018-05-11T06:17:11.284Z,17.17
2018-05-11T06:18:11.259Z,17.13
2018-05-11T06:19:11.304Z,17.10
2018-05-11T06:20:11.445Z,17.09
2018-05-11T06:21:11.310Z,17.17
2018-05-11T06:22:11.314Z,17.10
2018-05-11T06:23:11.331Z,17.07
2018-05-11T06:24:11.356Z,17.12
2018-05-11T06:25:11.486Z,17.12
2018-05-11T06:26:11.397Z,17.10
2018-05-11T06:27:11.387Z,17.09
2018-05-11T06:28:11.393Z,17.07
2018-05-11T06:29:11.434Z,17.09
2018-05-11T06:31:11.544Z,17.07
2018-05-11T06:32:11.458Z,17.09
2018-05-11T06:33:11.460Z,17.09
2018-05-11T06:34:11.472Z,17.09
2018-05-11T06:35:11.488Z,17.09
2018-05-11T06:36:11.601Z,17.07
2018-05-11T06:37:11.546Z,17.05
2018-05-11T06:38:11.532Z,17.09
2018-05-11T06:39:11.549Z,17.06
2018-05-11T06:40:18.901Z,17.02
2018-05-11T06:41:12.282Z,17.06
2018-05-11T06:42:11.584Z,17.03
2018-05-11T06:43:11.603Z,17.05
2018-05-11T06:44:11.632Z,17.06
2018-05-11T06:45:12.229Z,17.06
2018-05-11T06:46:11.758Z,17.00
2018-05-11T06:47:11.648Z,17.02
2018-05-11T06:48:11.670Z,16.95
2018-05-11T06:49:11.674Z,17.07
2018-05-11T06:50:11.717Z,16.95
2018-05-11T06:51:11.827Z,16.94
2018-05-11T06:52:11.741Z,16.91
2018-05-11T06:53:11.749Z,16.94
2018-05-11T06:54:11.755Z,16.99
2018-05-11T06:55:11.782Z,16.97
2018-05-11T06:56:11.946Z,16.91
2018-05-11T06:57:11.791Z,16.94
2018-05-11T06:58:11.796Z,16.91
2018-05-11T06:59:11.817Z,16.91
2018-05-11T07:00:11.820Z,16.91
2018-05-11T07:01:11.931Z,16.88
2018-05-11T07:02:11.849Z,16.82
2018-05-11T07:03:11.857Z,16.82
2018-05-11T07:04:11.877Z,16.80
2018-05-11T07:05:11.883Z,16.82
2018-05-11T07:06:12.010Z,16.81
2018-05-11T07:07:11.934Z,16.80
2018-05-11T07:08:11.927Z,16.90
2018-05-11T07:09:11.963Z,16.80
2018-05-11T07:10:11.947Z,16.73
2018-05-11T07:11:12.112Z,16.76
2018-05-11T07:12:11.999Z,16.80
2018-05-11T07:13:11.987Z,16.81
2018-05-11T07:14:12.029Z,16.81
2018-05-11T07:15:12.013Z,16.80
2018-05-11T07:16:12.202Z,16.67
2018-05-11T07:17:12.054Z,16.74
2018-05-11T07:18:12.077Z,16.70
2018-05-11T07:19:12.065Z,16.72
2018-05-11T07:20:12.083Z,16.65
2018-05-11T07:21:12.197Z,16.70
2018-05-11T07:22:12.128Z,16.77
2018-05-11T07:23:12.146Z,16.80
2018-05-11T07:24:12.130Z,16.72
2018-05-11T07:25:12.138Z,16.69
2018-05-11T07:26:12.317Z,16.70
2018-05-11T07:27:12.165Z,16.63
2018-05-11T07:28:12.207Z,16.67
2018-05-11T07:34:12.280Z,16.63
2018-05-11T07:35:12.293Z,16.63
2018-05-11T07:36:12.309Z,16.57
2018-05-11T07:37:12.321Z,16.65
2018-05-11T07:38:12.432Z,16.63
2018-05-11T07:39:12.321Z,16.62
2018-05-11T07:41:12.349Z,16.67
2018-05-11T07:42:12.389Z,16.63
2018-05-11T07:43:12.580Z,16.59
2018-05-11T07:44:12.411Z,16.66
2018-05-11T07:45:12.421Z,16.58
2018-05-11T07:46:13.896Z,16.55
2018-05-11T07:47:13.424Z,16.55
2018-05-11T07:48:14.028Z,16.54
2018-05-11T07:49:14.049Z,16.49
2018-05-11T07:50:12.462Z,16.55
2018-05-11T07:51:12.476Z,16.55
2018-05-11T07:52:12.485Z,16.59
2018-05-11T07:53:12.608Z,16.59
2018-05-11T07:54:12.523Z,16.54
2018-05-11T07:55:12.550Z,16.55
2018-05-11T07:56:12.539Z,16.54
2018-05-11T07:57:12.577Z,16.52
2018-05-11T07:58:12.729Z,16.45
2018-05-11T07:59:13.790Z,16.45
2018-05-11T08:00:12.601Z,16.47
2018-05-11T08:01:12.605Z,16.51
2018-05-11T08:02:12.629Z,16.49
2018-05-11T08:03:12.801Z,16.51
2018-05-11T08:04:12.640Z,16.47
2018-05-11T08:05:12.658Z,16.40
2018-05-11T08:06:12.661Z,16.45
2018-05-11T08:07:12.681Z,16.44
2018-05-11T08:08:12.838Z,16.42
2018-05-11T08:09:12.728Z,16.45
2018-05-11T08:11:12.741Z,16.44
2018-05-11T08:12:12.741Z,16.40
2018-05-11T08:13:12.883Z,16.42
2018-05-11T08:14:12.847Z,16.45
2018-05-11T08:15:12.786Z,16.42
2018-05-11T08:16:12.818Z,16.47
2018-05-11T08:17:12.835Z,16.40
2018-05-11T08:18:13.653Z,16.37
2018-05-11T08:19:12.858Z,16.36
2018-05-11T08:20:12.875Z,16.40
2018-05-11T08:21:12.859Z,16.42
2018-05-11T08:22:12.871Z,16.44
2018-05-11T08:23:13.058Z,16.37
2018-05-11T08:24:12.901Z,16.33
2018-05-11T08:25:12.918Z,16.37
2018-05-11T08:26:12.926Z,16.33
2018-05-11T08:27:12.935Z,16.33
2018-05-11T08:28:13.049Z,16.32
2018-05-11T08:29:12.990Z,16.33
2018-05-11T08:30:13.006Z,16.29
2018-05-11T08:31:12.989Z,16.29
2018-05-11T08:32:13.022Z,16.22
2018-05-11T08:33:13.159Z,16.32
2018-05-11T08:34:13.526Z,16.33
2018-05-11T08:35:13.037Z,16.26
2018-05-11T08:36:13.052Z,16.25
2018-05-11T08:37:13.063Z,16.18
2018-05-11T08:38:13.188Z,16.26
2018-05-11T08:39:13.089Z,16.39
2018-05-11T08:40:13.102Z,16.39
2018-05-11T08:41:13.113Z,16.29
2018-05-11T08:42:13.153Z,16.37
2018-05-11T08:43:13.315Z,16.25
2018-05-11T08:44:13.156Z,16.29
2018-05-11T08:45:13.187Z,16.27
2018-05-11T08:46:13.193Z,16.18
2018-05-11T08:47:13.217Z,16.32
2018-05-11T08:48:13.225Z,16.13
2018-05-11T08:49:13.340Z,16.25
2018-05-11T08:50:13.222Z,16.26
2018-05-11T08:51:13.266Z,16.25
2018-05-11T08:53:17.675Z,16.21
2018-05-11T08:54:20.542Z,16.17
2018-05-11T08:55:13.290Z,16.25
2018-05-11T08:56:13.320Z,16.21
2018-05-11T08:57:13.362Z,16.21
2018-05-11T08:58:13.326Z,16.22
2018-05-11T08:59:13.467Z,16.18
2018-05-11T09:00:13.352Z,16.10
2018-05-11T09:01:13.377Z,16.22
2018-05-11T09:02:13.379Z,16.10
2018-05-11T09:03:13.418Z,16.14
2018-05-11T09:04:13.531Z,16.17
2018-05-11T09:05:13.439Z,16.13
2018-05-11T09:06:13.426Z,16.22
2018-05-11T09:07:13.450Z,16.16
2018-05-11T09:08:13.455Z,16.25
2018-05-11T09:09:13.565Z,16.11
2018-05-11T09:10:13.484Z,16.13
2018-05-11T09:11:13.490Z,16.22
2018-05-11T09:12:13.532Z,16.11
2018-05-11T09:13:13.520Z,16.16
2018-05-11T09:14:13.679Z,16.17
2018-05-11T09:15:13.552Z,16.14
2018-05-11T09:16:13.557Z,16.14
2018-05-11T09:17:13.571Z,16.16
2018-05-11T09:18:13.579Z,16.02
2018-05-11T09:19:13.718Z,16.04
2018-05-11T09:20:13.610Z,16.08
2018-05-11T09:21:13.616Z,16.04
2018-05-11T09:22:13.629Z,16.10
2018-05-11T09:23:13.644Z,16.02
2018-05-11T09:24:13.752Z,16.13
2018-05-11T09:25:13.693Z,16.13
2018-05-11T09:26:13.677Z,16.04
2018-05-11T09:27:13.718Z,16.00
2018-05-11T09:28:13.707Z,16.11
2018-05-11T09:29:13.826Z,16.13
2018-05-11T09:30:13.726Z,16.08
2018-05-11T09:31:13.742Z,16.07
2018-05-11T09:32:13.751Z,15.98
2018-05-11T09:33:13.782Z,16.08
2018-05-11T09:34:33.694Z,16.13
2018-05-11T09:35:14.398Z,16.08
2018-05-11T09:36:13.832Z,16.08
2018-05-11T09:37:13.816Z,16.17
2018-05-11T09:38:14.604Z,16.16
2018-05-11T09:39:14.594Z,16.16
2018-05-11T09:40:14.050Z,16.14
2018-05-11T09:41:14.435Z,16.13
2018-05-11T09:42:13.883Z,16.13
2018-05-11T09:43:13.890Z,16.16
2018-05-11T09:44:14.078Z,16.08
2018-05-11T09:45:13.916Z,16.13
2018-05-11T09:46:14.365Z,16.16
2018-05-11T09:47:13.951Z,16.10
2018-05-11T09:48:14.476Z,16.11
2018-05-11T09:49:14.094Z,16.08
2018-05-11T09:50:14.006Z,16.14
2018-05-11T09:51:14.005Z,16.13
2018-05-11T09:52:14.548Z,16.22
2018-05-11T09:53:15.153Z,16.14
2018-05-11T09:54:14.659Z,16.13
2018-05-11T09:55:14.039Z,16.21
2018-05-11T09:56:14.070Z,16.21
2018-05-11T09:57:14.070Z,16.25
2018-05-11T09:58:14.110Z,16.21
2018-05-11T09:59:14.197Z,16.18
2018-05-11T10:00:15.084Z,16.33
2018-05-11T10:01:14.116Z,16.34
2018-05-11T10:02:14.125Z,16.26
2018-05-11T10:03:14.160Z,16.36
2018-05-11T10:04:14.279Z,16.36
2018-05-11T10:05:14.190Z,16.45
2018-05-11T10:06:14.180Z,16.44
2018-05-11T10:07:14.219Z,16.44
2018-05-11T10:08:14.208Z,16.52
2018-05-11T10:09:14.217Z,16.51
2018-05-11T10:10:14.379Z,16.47
2018-05-11T10:11:14.271Z,16.55
2018-05-11T10:12:15.797Z,16.55
2018-05-11T10:13:15.125Z,16.59
2018-05-11T10:14:14.921Z,16.66
2018-05-11T10:16:14.315Z,16.67
2018-05-11T10:17:14.329Z,16.80
2018-05-11T10:18:14.389Z,16.69
2018-05-11T10:19:14.360Z,16.81
2018-05-11T10:20:14.515Z,16.87
2018-05-11T10:21:14.392Z,16.88
2018-05-11T10:22:14.399Z,16.92
2018-05-11T10:23:14.396Z,16.97
2018-05-11T10:24:14.417Z,16.94
2018-05-11T10:25:14.579Z,16.90
2018-05-11T10:26:14.454Z,17.12
2018-05-11T10:27:14.466Z,17.10
2018-05-11T10:28:14.473Z,17.10
2018-05-11T10:29:14.490Z,17.24
2018-05-11T10:30:14.622Z,17.18
2018-05-11T10:31:14.524Z,17.27
2018-05-11T10:32:14.519Z,17.21
2018-05-11T10:33:16.041Z,17.35
2018-05-11T10:34:14.549Z,17.38
2018-05-11T10:35:22.275Z,17.36
2018-05-11T10:36:14.580Z,17.39
2018-05-11T10:37:14.597Z,17.46
2018-05-11T10:38:14.611Z,17.45
2018-05-11T10:39:14.642Z,17.50
2018-05-11T10:40:14.758Z,17.62
2018-05-11T10:41:14.668Z,17.58
2018-05-11T10:42:14.690Z,17.66
2018-05-11T10:43:14.684Z,17.69
2018-05-11T10:44:14.691Z,17.73
2018-05-11T10:45:14.872Z,17.73
2018-05-11T10:46:14.711Z,17.65
2018-05-11T10:47:14.727Z,17.79
2018-05-11T10:51:14.811Z,17.96
2018-05-11T10:52:41.372Z,18.03
2018-05-11T10:53:34.043Z,18.14
2018-05-11T10:54:15.660Z,18.20
2018-05-11T10:55:16.969Z,18.21
2018-05-11T10:56:14.852Z,18.23
2018-05-11T10:57:14.878Z,18.32
2018-05-11T10:58:14.881Z,18.35
2018-05-11T10:59:14.920Z,18.34
2018-05-11T11:00:15.079Z,18.49
2018-05-11T11:01:14.925Z,18.56
2018-05-11T11:02:15.038Z,18.65
2018-05-11T11:03:14.956Z,18.68
2018-05-11T11:04:14.997Z,18.74
2018-05-11T11:05:15.101Z,18.89
2018-05-11T11:06:15.838Z,18.90
2018-05-11T11:10:15.191Z,19.02
2018-05-11T11:12:16.192Z,19.05
2018-05-11T11:13:17.449Z,19.05
2018-05-11T11:14:15.149Z,19.13
2018-05-11T11:15:15.263Z,19.16
2018-05-11T11:16:15.154Z,19.15
2018-05-11T11:17:15.167Z,19.23
2018-05-11T11:18:15.184Z,19.20
2018-05-11T11:19:15.225Z,19.35
2018-05-11T11:20:15.230Z,19.46
2018-05-11T11:21:15.327Z,19.56
2018-05-11T11:22:15.241Z,19.70
2018-05-11T11:23:15.273Z,19.75
2018-05-11T11:24:15.305Z,19.90
2018-05-11T11:25:15.297Z,19.87
2018-05-11T11:26:15.433Z,20.01
2018-05-11T11:27:15.349Z,20.05
2018-05-11T11:28:15.351Z,20.08
2018-05-11T11:29:15.360Z,20.15
2018-05-11T11:30:15.384Z,20.18
2018-05-11T11:31:15.518Z,20.23
2018-05-11T11:32:15.438Z,20.22
2018-05-11T11:33:15.446Z,20.35
2018-05-11T11:34:15.516Z,20.27
2018-05-11T11:35:15.455Z,20.22
2018-05-11T11:36:15.629Z,20.32
2018-05-11T11:37:15.495Z,20.27
2018-05-11T11:38:15.533Z,20.37
2018-05-11T11:39:16.444Z,20.38
2018-05-11T11:40:16.170Z,20.44
2018-05-11T11:41:15.716Z,20.64
2018-05-11T11:43:17.485Z,20.78
2018-05-11T11:44:15.607Z,20.85
2018-05-11T11:45:15.630Z,21.04
2018-05-11T11:46:15.790Z,21.15
2018-05-11T11:47:15.665Z,21.15
2018-05-11T11:48:19.582Z,21.00
2018-05-11T11:49:15.702Z,21.00
2018-05-11T11:50:15.734Z,21.03
2018-05-11T11:51:15.833Z,21.03
2018-05-11T11:52:15.748Z,21.12
2018-05-11T11:53:15.789Z,21.28
2018-05-11T11:54:15.783Z,21.43
2018-05-11T11:55:15.825Z,21.43
2018-05-11T11:56:17.790Z,21.43
2018-05-11T11:57:29.143Z,21.51
2018-05-11T11:58:15.886Z,21.62
2018-05-11T12:00:17.103Z,21.82
2018-05-11T12:01:17.167Z,21.85
2018-05-11T12:03:17.063Z,22.14
2018-05-11T12:04:17.401Z,22.18
2018-05-11T12:05:16.690Z,22.16
2018-05-11T12:06:16.109Z,22.24
2018-05-11T12:07:16.449Z,22.23
2018-05-11T12:08:17.253Z,22.34
2018-05-11T12:09:16.065Z,22.38
2018-05-11T12:11:16.876Z,22.54
2018-05-11T12:12:17.124Z,22.57
2018-05-11T12:14:17.175Z,22.57
2018-05-11T12:15:16.977Z,22.76
2018-05-11T12:16:16.893Z,22.78
2018-05-11T12:17:16.213Z,22.79
2018-05-11T12:18:17.062Z,22.71
2018-05-11T12:19:17.460Z,22.75
2018-05-11T12:20:16.269Z,22.81
2018-05-11T12:21:16.413Z,22.99
2018-05-11T12:22:16.309Z,23.12
2018-05-11T12:23:16.331Z,23.18
2018-05-11T12:24:17.501Z,23.24
2018-05-11T12:26:16.624Z,23.52
2018-05-11T12:27:16.433Z,23.57
2018-05-11T12:28:16.428Z,23.41
2018-05-11T12:30:17.451Z,23.35
2018-05-11T12:32:16.506Z,23.63
2018-05-11T12:34:16.575Z,23.79
2018-05-11T12:36:17.855Z,24.00
2018-05-11T12:37:17.214Z,24.08
2018-05-11T12:38:16.625Z,24.17
2018-05-11T12:39:16.675Z,24.12
2018-05-11T12:40:16.678Z,24.08
2018-05-11T12:42:16.713Z,24.14
2018-05-11T12:43:54.057Z,24.14
2018-05-11T12:44:17.556Z,24.17
2018-05-11T12:45:16.769Z,24.15
2018-05-11T12:46:16.941Z,24.17
2018-05-11T12:47:50.025Z,24.30
2018-05-11T12:48:16.838Z,24.30
2018-05-11T12:50:16.900Z,24.33
2018-05-11T12:51:17.026Z,24.39
2018-05-11T12:56:17.106Z,25.11
2018-05-11T12:57:17.931Z,25.14
2018-05-11T13:00:18.578Z,24.97
2018-05-11T13:01:17.273Z,25.15
2018-05-11T13:02:17.144Z,25.11
2018-05-11T13:03:17.161Z,25.33
2018-05-11T13:04:17.191Z,25.48
2018-05-11T13:05:37.695Z,25.67
2018-05-11T13:06:18.545Z,25.75
2018-05-11T13:07:17.884Z,25.79
2018-05-11T13:09:17.287Z,25.81
2018-05-11T13:10:17.312Z,25.84
2018-05-11T13:12:17.372Z,25.94
2018-05-11T13:13:18.601Z,25.97
2018-05-11T13:15:17.426Z,26.35
2018-05-11T13:16:18.637Z,26.64
2018-05-11T13:18:18.988Z,26.86
2018-05-11T13:20:17.555Z,27.19
2018-05-11T13:21:17.681Z,27.24
2018-05-11T13:22:17.597Z,27.34
2018-05-11T13:23:17.612Z,27.36
2018-05-11T13:24:17.658Z,27.37
2018-05-11T13:25:17.657Z,27.51
2018-05-11T13:26:18.615Z,27.52
2018-05-11T13:27:18.920Z,27.38
2018-05-11T13:29:17.753Z,27.43
2018-05-11T13:30:17.865Z,27.37
2018-05-11T13:31:17.912Z,27.52
2018-05-11T13:32:17.838Z,27.51
2018-05-11T13:33:19.242Z,27.62
2018-05-11T13:35:17.911Z,27.74
2018-05-11T13:36:18.106Z,27.84
2018-05-11T13:37:17.952Z,27.83
2018-05-11T13:38:17.971Z,27.96
2018-05-11T13:45:02.865Z,28.41
2018-05-11T13:46:16.528Z,28.24
2018-05-11T13:51:33.232Z,28.73